Time;durP1;ratioP1;P1;durP2;ratioP2;P2;SDS_P1;SDS_P2;PMS_P1;PMS_P2;Temp;Humidity;BMP_temperature;BMP_pressure;BME280_temperature;BME280_humidity;BME280_pressure;Samples;Min_cycle;Max_cycle;Signal;HPM_P1;HPM_P2
2022/07/24 00:01:53;;;;;;;3.50;1.83;;;;;;;16.74;81.37;101323.44;4928317;29;20068;-64
2022/07/24 00:04:24;;;;;;;2.45;1.80;;;;;;;16.75;81.57;101330.47;4931994;29;20083;-65
2022/07/24 00:06:59;;;;;;;3.10;1.92;;;;;;;16.72;81.44;101325.00;4931207;29;20067;-63
2022/07/24 00:09:51;;;;;;;4.72;1.80;;;;;;;16.69;82.14;101317.59;4919989;29;20052;-63
2022/07/24 00:12:22;;;;;;;2.92;1.83;;;;;;;16.73;81.29;101311.03;4930836;29;20061;-64
2022/07/24 00:14:48;;;;;;;4.97;1.45;;;;;;;16.76;81.76;101323.09;4931028;29;20100;-64
2022/07/24 00:17:13;;;;;;;4.18;1.40;;;;;;;16.65;81.80;101320.28;4948027;29;20130;-64
2022/07/24 00:19:44;;;;;;;2.88;1.60;;;;;;;16.53;82.28;101317.88;4962833;28;20337;-64
2022/07/24 00:22:12;;;;;;;2.33;1.70;;;;;;;16.46;82.63;101314.31;4972735;28;20508;-62
2022/07/24 00:24:38;;;;;;;5.90;1.92;;;;;;;16.43;82.98;101304.19;4969477;28;20035;-63
2022/07/24 00:27:08;;;;;;;2.40;1.42;;;;;;;16.49;82.07;101306.19;4972257;28;20123;-65
2022/07/24 00:29:37;;;;;;;4.40;2.13;;;;;;;16.48;82.42;101299.22;4971008;28;20042;-65
2022/07/24 00:32:03;;;;;;;2.17;1.70;;;;;;;16.49;82.58;101302.72;4963704;28;20039;-65
2022/07/24 00:34:29;;;;;;;2.05;1.83;;;;;;;16.42;82.74;101297.19;4972017;28;20490;-64
2022/07/24 00:37:00;;;;;;;3.22;1.85;;;;;;;16.34;82.45;101299.06;4971229;28;20030;-64
2022/07/24 00:39:29;;;;;;;1.93;1.60;;;;;;;16.27;83.37;101302.53;4971148;28;20121;-64
2022/07/24 00:42:06;;;;;;;1.80;1.30;;;;;;;16.35;82.62;101302.56;4970353;28;20447;-63
2022/07/24 00:44:33;;;;;;;3.42;1.67;;;;;;;16.25;82.72;101301.34;4970136;28;20046;-65
2022/07/24 00:47:02;;;;;;;3.03;1.48;;;;;;;16.23;83.25;101298.22;4969149;28;20394;-64
2022/07/24 00:49:30;;;;;;;1.75;1.27;;;;;;;16.17;82.98;101299.72;4971837;28;20038;-65
2022/07/24 00:51:56;;;;;;;2.42;1.35;;;;;;;16.26;83.14;101290.09;4969358;28;20031;-64
2022/07/24 00:54:32;;;;;;;2.20;1.35;;;;;;;16.14;83.89;101295.81;4971841;28;20045;-64
2022/07/24 00:56:58;;;;;;;2.22;1.20;;;;;;;16.17;83.39;101308.66;4968760;28;20397;-62
2022/07/24 00:59:29;;;;;;;1.58;1.30;;;;;;;16.12;83.38;101300.09;4969561;28;20041;-62
2022/07/24 01:01:54;;;;;;;3.20;1.60;;;;;;;16.15;83.39;101304.75;4963827;28;20477;-64
2022/07/24 01:04:21;;;;;;;2.60;1.35;;;;;;;16.19;83.26;101303.63;4971222;28;20105;-63
2022/07/24 01:06:48;;;;;;;2.85;1.33;;;;;;;16.20;83.01;101312.56;4970771;28;20453;-63
2022/07/24 01:09:14;;;;;;;1.70;1.20;;;;;;;16.00;83.72;101301.16;4964127;28;20035;-62
2022/07/24 01:11:43;;;;;;;2.05;1.55;;;;;;;15.99;83.86;101309.66;4968158;28;20390;-60
2022/07/24 01:14:14;;;;;;;3.10;1.45;;;;;;;16.03;83.69;101313.97;4970787;28;20080;-64
2022/07/24 01:16:42;;;;;;;1.70;1.20;;;;;;;15.92;84.07;101309.59;4971131;28;20037;-62
2022/07/24 01:19:07;;;;;;;1.85;1.35;;;;;;;16.03;84.16;101302.31;4969624;28;20070;-62
2022/07/24 01:21:33;;;;;;;2.75;1.40;;;;;;;15.98;84.16;101299.94;4986459;28;20070;-63
2022/07/24 01:24:03;;;;;;;3.35;1.65;;;;;;;15.89;84.63;101302.97;4970489;28;20122;-63
2022/07/24 01:26:32;;;;;;;2.20;1.60;;;;;;;15.98;84.24;101297.25;4969472;28;20038;-63
2022/07/24 01:29:00;;;;;;;5.57;2.10;;;;;;;15.97;84.87;101299.16;4967220;28;20035;-62
2022/07/24 01:31:27;;;;;;;2.63;1.80;;;;;;;16.05;84.14;101297.28;4968937;28;20035;-64
2022/07/24 01:33:55;;;;;;;2.70;1.88;;;;;;;15.99;83.95;101301.50;4969987;28;20042;-63
2022/07/24 01:36:21;;;;;;;2.60;1.70;;;;;;;15.92;84.77;101301.44;4970109;28;20049;-64
2022/07/24 01:38:51;;;;;;;4.22;2.25;;;;;;;16.00;84.61;101301.16;4967584;28;20029;-63
2022/07/24 01:41:21;;;;;;;2.30;1.67;;;;;;;15.97;84.83;101293.72;4964992;28;20167;-62
2022/07/24 01:43:49;;;;;;;2.83;2.03;;;;;;;15.87;85.07;101288.97;4969916;28;20311;-63
2022/07/24 01:46:18;;;;;;;5.13;2.28;;;;;;;15.82;85.31;101286.63;4970157;28;20035;-62
2022/07/24 01:48:44;;;;;;;1.60;1.50;;;;;;;15.89;85.06;101291.34;4969415;28;20031;-63
2022/07/24 01:51:10;;;;;;;5.13;1.90;;;;;;;15.92;84.97;101285.94;4971065;28;20043;-64
2022/07/24 01:53:38;;;;;;;3.33;1.30;;;;;;;15.86;85.13;101294.78;4970760;28;20066;-64
2022/07/24 01:56:04;;;;;;;2.50;1.50;;;;;;;15.82;85.47;101288.53;4970120;28;20030;-64
2022/07/24 01:58:39;;;;;;;1.60;1.23;;;;;;;15.75;85.35;101288.50;4966438;28;20057;-64
2022/07/24 02:01:09;;;;;;;2.47;1.58;;;;;;;15.75;85.36;101296.63;4970594;28;20050;-64
2022/07/24 02:03:38;;;;;;;1.45;1.30;;;;;;;15.80;85.68;101283.50;4967248;28;20378;-64
2022/07/24 02:06:09;;;;;;;3.40;1.60;;;;;;;15.80;85.35;101294.34;4969475;28;20027;-63
2022/07/24 02:08:40;;;;;;;1.88;1.20;;;;;;;15.78;85.64;101293.94;4968477;28;20568;-62
2022/07/24 02:11:09;;;;;;;2.13;1.30;;;;;;;15.73;85.57;101288.09;4969564;28;20046;-63
2022/07/24 02:13:35;;;;;;;1.63;1.30;;;;;;;15.76;85.48;101292.75;4962268;28;20030;-63
2022/07/24 02:16:03;;;;;;;1.90;1.40;;;;;;;15.70;85.13;101303.19;4974316;28;20026;-63
2022/07/24 02:18:29;;;;;;;2.50;1.25;;;;;;;15.70;85.52;101297.00;4975757;28;20184;-63
2022/07/24 02:20:59;;;;;;;2.08;1.35;;;;;;;15.67;85.58;101295.78;4968466;28;20174;-63
2022/07/24 02:23:34;;;;;;;2.47;1.50;;;;;;;15.73;85.19;101299.72;4962357;28;20035;-62
2022/07/24 02:26:04;;;;;;;1.50;1.35;;;;;;;15.69;85.22;101295.41;4967122;28;20050;-63
2022/07/24 02:28:32;;;;;;;2.20;1.30;;;;;;;15.60;85.64;101290.25;4970508;28;20292;-63
2022/07/24 02:31:05;;;;;;;2.45;1.60;;;;;;;15.49;86.28;101283.16;4952077;28;20043;-63
2022/07/24 02:33:31;;;;;;;2.13;1.27;;;;;;;15.50;86.42;101282.03;4962341;28;20039;-64
2022/07/24 02:35:59;;;;;;;2.42;1.50;;;;;;;15.43;86.66;101280.00;4969057;28;20414;-63
2022/07/24 02:38:27;;;;;;;2.70;1.60;;;;;;;15.37;87.15;101286.88;4964509;28;20039;-63
2022/07/24 02:40:57;;;;;;;1.50;1.30;;;;;;;15.44;86.78;101292.44;4967149;28;20042;-63
2022/07/24 02:43:25;;;;;;;2.88;1.52;;;;;;;15.46;86.69;101300.22;4968747;28;20033;-63
2022/07/24 02:45:51;;;;;;;1.92;1.35;;;;;;;15.46;85.93;101290.13;4970164;28;20057;-63
2022/07/24 02:48:25;;;;;;;3.15;1.38;;;;;;;15.42;86.27;101293.97;4973940;28;20038;-63
2022/07/24 02:50:54;;;;;;;1.92;1.27;;;;;;;15.36;86.13;101302.41;4973581;28;20037;-63
2022/07/24 02:53:20;;;;;;;1.75;1.40;;;;;;;15.28;86.35;101298.06;4971982;28;20085;-64
2022/07/24 02:55:46;;;;;;;1.77;1.23;;;;;;;15.29;86.51;101305.03;4973791;28;20344;-63
2022/07/24 02:58:17;;;;;;;2.50;1.40;;;;;;;15.22;86.78;101306.88;4971211;28;20300;-64
2022/07/24 03:00:42;;;;;;;2.42;1.35;;;;;;;15.30;86.74;101308.53;4971180;28;20038;-61
2022/07/24 03:03:08;;;;;;;2.08;1.58;;;;;;;15.34;87.08;101314.78;4973247;28;20046;-63
2022/07/24 03:05:38;;;;;;;2.55;1.52;;;;;;;15.31;86.78;101307.41;4973462;28;20042;-64
2022/07/24 03:08:09;;;;;;;2.42;1.60;;;;;;;15.31;86.71;101310.13;4973216;28;20035;-64
2022/07/24 03:10:39;;;;;;;1.92;1.50;;;;;;;15.28;86.80;101305.41;4969845;28;20490;-62
2022/07/24 03:13:07;;;;;;;1.48;1.30;;;;;;;15.25;86.95;101301.50;4973526;28;20061;-63
2022/07/24 03:15:33;;;;;;;8.68;1.60;;;;;;;15.26;86.75;101305.00;4973190;28;20122;-65
2022/07/24 03:17:59;;;;;;;2.35;1.50;;;;;;;15.16;86.85;101298.28;4967130;28;20050;-63
2022/07/24 03:20:31;;;;;;;1.80;1.40;;;;;;;15.22;87.47;101293.31;4973583;28;20553;-65
2022/07/24 03:22:57;;;;;;;3.92;1.52;;;;;;;15.33;86.71;101295.00;4969177;28;20030;-63
2022/07/24 03:25:25;;;;;;;4.00;1.70;;;;;;;15.27;87.20;101301.16;4970045;28;20476;-64
2022/07/24 03:27:51;;;;;;;2.88;1.42;;;;;;;15.22;87.87;101296.81;4973579;28;20383;-63
2022/07/24 03:30:23;;;;;;;5.55;1.63;;;;;;;15.26;87.51;101296.84;4972814;28;20043;-63
2022/07/24 03:32:49;;;;;;;;;;;;;;;15.29;87.53;101304.28;4963381;28;20027;-64
2022/07/24 03:35:20;;;;;;;3.25;1.85;;;;;;;15.34;86.99;101303.94;4969606;28;19990;-63
2022/07/24 03:37:49;;;;;;;2.35;1.65;;;;;;;15.34;87.09;101302.00;4969799;28;20027;-62
2022/07/24 03:40:15;;;;;;;3.38;1.60;;;;;;;15.16;88.01;101292.88;4970581;28;20125;-63
2022/07/24 03:42:41;;;;;;;3.13;1.80;;;;;;;15.17;88.01;101297.16;4973023;28;20117;-63
2022/07/24 03:45:07;;;;;;;2.08;1.40;;;;;;;15.18;88.66;101306.06;4967782;28;20067;-63
2022/07/24 03:47:38;;;;;;;1.65;1.48;;;;;;;15.21;88.62;101305.34;4973043;28;20035;-64
2022/07/24 03:50:04;;;;;;;3.10;1.65;;;;;;;15.27;87.89;101293.75;4966340;28;20509;-64
2022/07/24 03:52:29;;;;;;;4.00;1.60;;;;;;;15.24;88.00;101301.88;4972405;28;20417;-64
2022/07/24 03:54:55;;;;;;;2.70;1.50;;;;;;;15.24;88.19;101304.59;4972644;28;20039;-64
2022/07/24 03:57:23;;;;;;;2.28;1.30;;;;;;;15.20;88.35;101290.97;4971435;28;20101;-64
2022/07/24 03:59:49;;;;;;;2.35;1.63;;;;;;;15.28;87.70;101303.47;4970396;28;20093;-63
2022/07/24 04:02:17;;;;;;;3.63;1.45;;;;;;;15.27;87.63;101293.00;4972770;28;20035;-64
2022/07/24 04:04:44;;;;;;;1.67;1.35;;;;;;;15.27;88.25;101293.00;4967250;28;20031;-61
2022/07/24 04:07:48;;;;;;;3.45;1.95;;;;;;;15.20;89.54;101292.91;4986416;28;20035;-64
2022/07/24 04:10:18;;;;;;;2.38;1.50;;;;;;;15.23;90.54;101308.47;4968933;28;20043;-64
2022/07/24 04:12:48;;;;;;;2.47;1.67;;;;;;;15.37;89.89;101295.81;5011945;22;20048;-58
2022/07/24 04:15:19;;;;;;;4.13;2.00;;;;;;;15.20;90.38;101288.25;5001920;28;20042;-57
2022/07/24 04:17:47;;;;;;;4.25;2.33;;;;;;;15.23;91.33;101287.50;5011783;28;20388;-55
2022/07/24 04:20:28;;;;;;;2.20;1.70;;;;;;;15.36;91.25;101290.78;5010741;28;20088;-57
2022/07/24 04:22:56;;;;;;;4.03;1.73;;;;;;;15.55;90.57;101292.53;4999959;28;20428;-56
2022/07/24 04:25:22;;;;;;;5.30;2.17;;;;;;;15.73;89.22;101304.38;5009154;28;20026;-55
2022/07/24 04:27:52;;;;;;;3.85;2.00;;;;;;;15.72;89.24;101292.72;5010455;28;20416;-56
2022/07/24 04:30:20;;;;;;;3.17;1.88;;;;;;;15.75;89.46;101286.56;5010651;28;20392;-56
2022/07/24 04:32:47;;;;;;;3.83;2.05;;;;;;;15.78;90.29;101307.53;5004086;28;20033;-57
2022/07/24 04:35:15;;;;;;;4.40;2.08;;;;;;;15.91;89.51;101297.19;5024415;28;20064;-58
2022/07/24 04:37:41;;;;;;;2.75;1.73;;;;;;;16.00;89.36;101301.16;5007421;28;20038;-57
2022/07/24 04:40:07;;;;;;;3.65;1.75;;;;;;;16.08;89.35;101296.56;5009323;28;20095;-56
2022/07/24 04:42:32;;;;;;;2.72;1.48;;;;;;;16.14;88.96;101303.22;5007046;28;20029;-57
2022/07/24 04:45:01;;;;;;;3.17;1.90;;;;;;;16.18;88.49;101293.91;5009039;28;20038;-58
2022/07/24 04:47:29;;;;;;;3.95;1.90;;;;;;;16.18;88.58;101293.91;4999012;28;20034;-56
2022/07/24 04:50:04;;;;;;;4.28;2.03;;;;;;;15.93;89.68;101282.06;5006433;28;20427;-58
2022/07/24 04:52:35;;;;;;;3.75;1.77;;;;;;;15.98;90.50;101287.16;5009111;28;20110;-55
2022/07/24 04:55:04;;;;;;;3.80;1.90;;;;;;;16.13;90.47;101283.41;5005630;28;20389;-58
2022/07/24 04:57:29;;;;;;;2.53;1.40;;;;;;;16.30;89.87;101289.34;5008920;28;20038;-57
2022/07/24 04:59:55;;;;;;;3.40;1.63;;;;;;;16.22;90.12;101291.22;5004422;28;20378;-57
2022/07/24 05:02:25;;;;;;;3.95;1.98;;;;;;;16.24;90.51;101289.69;5004701;28;20403;-57
2022/07/24 05:04:51;;;;;;;2.58;1.70;;;;;;;16.40;89.82;101288.63;5011085;28;20029;-57
2022/07/24 05:07:19;;;;;;;5.68;1.58;;;;;;;16.42;89.24;101292.53;5010009;28;20036;-59
2022/07/24 05:09:49;;;;;;;3.20;1.63;;;;;;;16.11;90.51;101288.44;5006957;28;20228;-58
2022/07/24 05:12:20;;;;;;;2.90;1.88;;;;;;;16.07;91.90;101289.53;5009474;28;20096;-58
2022/07/24 05:14:50;;;;;;;5.10;1.30;;;;;;;16.06;91.45;101298.88;5009641;28;20083;-58
2022/07/24 05:17:16;;;;;;;2.20;1.60;;;;;;;16.34;90.64;101298.31;5019069;28;20052;-57
2022/07/24 05:19:43;;;;;;;1.73;1.40;;;;;;;16.28;90.93;101297.84;5007574;28;20111;-53
2022/07/24 05:22:09;;;;;;;3.63;1.38;;;;;;;16.51;90.83;101300.41;5007483;28;20041;-58
2022/07/24 05:24:38;;;;;;;3.40;1.42;;;;;;;16.82;89.83;101305.25;5008372;28;20033;-56
2022/07/24 05:27:03;;;;;;;3.38;1.60;;;;;;;17.07;88.93;101300.72;5002324;28;20269;-56
2022/07/24 05:29:39;;;;;;;2.10;1.20;;;;;;;17.69;87.56;101299.34;5010665;28;20469;-56
2022/07/24 05:32:06;;;;;;;1.92;1.40;;;;;;;17.99;84.37;101307.19;5010518;28;20034;-58
2022/07/24 05:34:34;;;;;;;2.17;1.60;;;;;;;18.29;83.67;101309.53;5008658;28;20022;-56
2022/07/24 05:37:06;;;;;;;1.80;1.27;;;;;;;18.71;82.77;101304.81;5009321;28;20083;-58
2022/07/24 05:39:35;;;;;;;1.23;1.13;;;;;;;18.88;80.60;101306.72;5005631;28;20386;-55
2022/07/24 05:42:00;;;;;;;2.35;1.20;;;;;;;19.26;80.03;101306.97;5011506;28;20041;-57
2022/07/24 05:44:26;;;;;;;2.80;1.10;;;;;;;19.55;78.47;101309.16;5008371;28;20041;-58
2022/07/24 05:47:01;;;;;;;1.30;0.93;;;;;;;19.73;75.79;101304.38;5001042;28;20083;-56
2022/07/24 05:49:29;;;;;;;2.33;1.08;;;;;;;19.98;73.70;101306.16;5000904;28;20069;-57
2022/07/24 05:51:57;;;;;;;2.03;0.77;;;;;;;19.67;74.26;101305.19;5007558;28;20074;-58
2022/07/24 05:54:28;;;;;;;1.27;0.83;;;;;;;20.06;73.10;101313.13;5008721;28;20045;-54
2022/07/24 05:56:58;;;;;;;0.82;0.77;;;;;;;20.33;72.47;101303.16;5009056;28;20654;-58
2022/07/24 05:59:24;;;;;;;1.70;1.10;;;;;;;20.46;71.16;101291.28;5004006;28;20447;-57
2022/07/24 06:01:52;;;;;;;1.40;1.15;;;;;;;20.62;70.96;101294.28;5009897;28;20116;-58
2022/07/24 06:04:20;;;;;;;1.75;1.00;;;;;;;20.63;70.10;101297.78;5008143;28;20056;-57
2022/07/24 06:06:48;;;;;;;2.83;1.00;;;;;;;20.79;68.65;101298.00;5000970;28;20125;-57
2022/07/24 06:09:21;;;;;;;1.67;1.30;;;;;;;20.59;70.08;101297.03;5008477;28;20036;-56
2022/07/24 06:11:57;;;;;;;0.90;0.70;;;;;;;20.37;70.62;101290.22;5009658;28;20561;-56
2022/07/24 06:14:23;;;;;;;1.08;0.80;;;;;;;20.38;69.57;101292.53;5003687;28;20038;-58
2022/07/24 06:16:56;;;;;;;3.47;0.90;;;;;;;20.10;71.48;101292.00;5008732;28;20026;-56
2022/07/24 06:19:27;;;;;;;2.25;0.80;;;;;;;20.00;72.28;101290.13;5024607;28;20710;-56
2022/07/24 06:21:55;;;;;;;1.13;0.70;;;;;;;19.88;74.10;101293.34;5004904;28;20459;-56
2022/07/24 06:24:23;;;;;;;0.60;0.60;;;;;;;20.17;73.50;101297.41;5006229;28;20045;-57
2022/07/24 06:26:56;;;;;;;1.17;1.00;;;;;;;20.63;72.02;101289.56;5008788;28;20507;-58
2022/07/24 06:29:23;;;;;;;1.20;0.90;;;;;;;20.89;71.52;101285.34;5009413;28;20234;-58
2022/07/24 06:31:51;;;;;;;1.13;0.70;;;;;;;21.02;68.82;101278.97;4995926;28;20038;-58
2022/07/24 06:34:23;;;;;;;2.00;1.05;;;;;;;21.30;67.76;101275.88;5008787;28;20046;-58
2022/07/24 06:36:49;;;;;;;2.03;0.80;;;;;;;20.95;69.52;101289.97;5008611;28;20030;-56
2022/07/24 06:39:17;;;;;;;3.88;1.00;;;;;;;21.18;66.83;101287.38;5002538;28;20060;-56
2022/07/24 06:41:46;;;;;;;2.95;0.80;;;;;;;21.12;68.31;101283.53;5004232;28;20076;-58
2022/07/24 06:44:23;;;;;;;2.03;0.80;;;;;;;21.03;68.52;101290.69;5003673;28;20065;-57
2022/07/24 06:46:50;;;;;;;1.55;1.00;;;;;;;20.88;69.04;101290.09;5008426;28;20496;-58
2022/07/24 06:49:18;;;;;;;1.58;1.05;;;;;;;20.94;71.88;101277.50;5004128;28;20390;-58
2022/07/24 06:51:43;;;;;;;1.40;0.60;;;;;;;21.40;67.91;101282.41;5011168;28;20140;-58
2022/07/24 06:54:12;;;;;;;0.90;0.80;;;;;;;21.45;69.93;101285.44;5004853;28;20132;-59
2022/07/24 06:56:45;;;;;;;0.70;0.70;;;;;;;21.81;67.28;101279.47;5000684;28;20029;-59
2022/07/24 06:59:13;;;;;;;0.65;0.57;;;;;;;21.63;66.77;101273.44;5006258;28;20087;-60
2022/07/24 07:01:41;;;;;;;0.85;0.77;;;;;;;21.69;67.65;101271.78;5005480;28;20563;-58
2022/07/24 07:04:11;;;;;;;0.55;0.55;;;;;;;21.43;68.51;101263.16;5005651;28;20527;-59
2022/07/24 07:06:45;;;;;;;1.17;0.70;;;;;;;21.65;67.98;101271.84;5006061;28;20045;-59
2022/07/24 07:09:13;;;;;;;0.80;0.80;;;;;;;22.00;67.87;101254.06;5004336;28;20309;-59
2022/07/24 07:11:41;;;;;;;1.75;0.95;;;;;;;22.08;67.11;101261.78;5007555;28;20046;-59
2022/07/24 07:14:09;;;;;;;0.90;0.73;;;;;;;22.17;67.53;101261.22;5008354;28;20038;-59
2022/07/24 07:16:37;;;;;;;1.27;0.73;;;;;;;22.51;66.51;101269.25;5006454;28;20473;-58
2022/07/24 07:19:03;;;;;;;1.08;0.90;;;;;;;22.84;64.79;101266.25;5007925;28;20396;-59
2022/07/24 07:21:31;;;;;;;1.40;1.05;;;;;;;22.26;64.96;101255.97;5007746;28;20029;-58
2022/07/24 07:23:56;;;;;;;2.10;1.00;;;;;;;21.98;67.85;101256.44;5005320;28;20455;-57
2022/07/24 07:26:27;;;;;;;0.88;0.82;;;;;;;22.11;66.90;101266.41;5004785;28;20033;-58
2022/07/24 07:28:53;;;;;;;4.07;0.80;;;;;;;22.23;67.84;101267.78;5006078;28;20475;-57
2022/07/24 07:31:21;;;;;;;0.98;0.75;;;;;;;22.70;67.41;101280.28;5007075;28;20124;-57
2022/07/24 07:33:47;;;;;;;1.25;0.80;;;;;;;23.13;64.52;101274.69;5010419;28;20041;-59
2022/07/24 07:36:16;;;;;;;1.98;1.15;;;;;;;22.68;63.86;101271.69;5012044;28;20044;-60
2022/07/24 07:38:43;;;;;;;1.83;1.02;;;;;;;22.93;64.77;101273.94;5008401;28;20084;-58
2022/07/24 07:41:12;;;;;;;1.23;0.90;;;;;;;22.73;64.91;101278.66;5010271;28;20045;-57
2022/07/24 07:43:38;;;;;;;1.63;0.77;;;;;;;22.89;65.85;101268.50;5010725;28;20038;-57
2022/07/24 07:46:08;;;;;;;1.23;0.90;;;;;;;23.44;63.27;101272.47;5009424;28;20408;-59
2022/07/24 07:48:41;;;;;;;2.83;0.93;;;;;;;23.71;62.23;101275.78;5010458;28;20029;-59
2022/07/24 07:51:07;;;;;;;1.15;0.88;;;;;;;23.32;64.15;101264.88;5011332;28;20042;-59
2022/07/24 07:53:35;;;;;;;0.88;0.70;;;;;;;23.27;63.75;101266.91;5012109;28;20036;-59
2022/07/24 07:56:14;;;;;;;0.60;0.60;;;;;;;23.90;63.06;101270.19;5005441;28;20040;-59
2022/07/24 07:58:41;;;;;;;0.65;0.65;;;;;;;24.23;59.88;101276.47;5007540;28;20044;-59
2022/07/24 08:01:09;;;;;;;1.05;0.80;;;;;;;24.59;59.81;101268.81;5006473;28;20074;-59
2022/07/24 08:03:39;;;;;;;0.70;0.70;;;;;;;24.50;59.81;101273.41;5011166;28;20026;-57
2022/07/24 08:06:08;;;;;;;0.90;0.70;;;;;;;24.89;59.74;101271.13;5006943;28;20030;-60
2022/07/24 08:08:36;;;;;;;1.00;0.60;;;;;;;25.13;58.22;101276.34;5003380;28;21354;-59
2022/07/24 08:11:02;;;;;;;2.22;0.80;;;;;;;25.08;57.25;101280.44;5005986;28;20038;-59
2022/07/24 08:13:30;;;;;;;1.30;0.70;;;;;;;25.50;57.01;101275.63;5009440;28;20062;-60
2022/07/24 08:15:56;;;;;;;0.75;0.60;;;;;;;25.42;56.14;101263.28;5008599;28;20072;-60
2022/07/24 08:18:22;;;;;;;0.75;0.50;;;;;;;25.63;55.74;101268.13;5025531;28;20552;-58
2022/07/24 08:20:47;;;;;;;1.63;0.82;;;;;;;25.45;55.10;101259.66;4983366;28;20042;-59
2022/07/24 08:23:13;;;;;;;1.00;0.70;;;;;;;25.59;55.43;101268.25;5018040;28;20234;-58
2022/07/24 08:25:39;;;;;;;0.90;0.70;;;;;;;25.53;55.88;101269.25;5001553;28;20038;-57
2022/07/24 08:28:09;;;;;;;0.85;0.77;;;;;;;25.86;53.96;101259.50;5002586;28;20081;-58
2022/07/24 08:30:35;;;;;;;0.82;0.70;;;;;;;26.06;54.74;101256.50;4995123;28;20034;-58
2022/07/24 08:33:01;;;;;;;0.93;0.52;;;;;;;26.10;53.42;101257.16;5006005;28;20033;-58
2022/07/24 08:35:29;;;;;;;0.75;0.63;;;;;;;26.08;54.13;101257.59;5009463;28;20030;-58
2022/07/24 08:38:00;;;;;;;1.38;0.57;;;;;;;26.46;54.00;101258.22;5009729;28;20044;-56
2022/07/24 08:40:33;;;;;;;1.00;0.90;;;;;;;26.62;53.08;101254.50;5001279;28;20034;-57
2022/07/24 08:43:01;;;;;;;1.02;0.73;;;;;;;26.86;53.38;101254.84;5019936;28;20097;-58
2022/07/24 08:45:30;;;;;;;1.13;0.80;;;;;;;27.15;53.15;101255.31;5008370;28;20025;-57
2022/07/24 08:47:58;;;;;;;1.15;0.65;;;;;;;26.74;53.26;101251.72;5007509;28;20451;-57
2022/07/24 08:50:27;;;;;;;1.15;0.80;;;;;;;26.79;53.41;101253.13;5003058;28;20051;-58
2022/07/24 08:52:53;;;;;;;0.80;0.80;;;;;;;27.24;50.38;101255.34;5006961;28;20041;-58
2022/07/24 08:55:28;;;;;;;1.15;0.60;;;;;;;27.31;51.26;101255.09;5000047;28;20121;-58
2022/07/24 08:58:00;;;;;;;1.08;0.80;;;;;;;27.43;50.67;101257.00;5008670;28;20040;-58
2022/07/24 09:00:30;;;;;;;0.90;0.50;;;;;;;27.88;50.50;101268.22;5006116;28;20400;-55
2022/07/24 09:02:56;;;;;;;2.40;0.70;;;;;;;28.00;49.68;101261.81;5005590;28;20108;-58
2022/07/24 09:05:21;;;;;;;1.50;0.70;;;;;;;27.32;50.52;101245.56;5005450;28;20034;-57
2022/07/24 09:07:49;;;;;;;0.70;0.70;;;;;;;27.39;49.82;101242.56;5006633;28;20068;-58
2022/07/24 09:10:17;;;;;;;1.17;0.70;;;;;;;27.56;49.94;101239.06;5008524;28;20401;-58
2022/07/24 09:12:46;;;;;;;0.95;0.77;;;;;;;27.74;49.02;101238.34;5007987;28;20046;-59
2022/07/24 09:15:29;;;;;;;1.48;0.80;;;;;;;28.06;49.10;101248.13;5005355;28;20033;-58
2022/07/24 09:17:58;;;;;;;2.30;0.80;;;;;;;27.77;48.84;101242.97;5010399;28;20029;-59
2022/07/24 09:20:37;;;;;;;2.00;0.57;;;;;;;28.05;48.58;101241.81;5003860;28;20033;-59
2022/07/24 09:23:05;;;;;;;1.27;0.60;;;;;;;28.61;48.36;101246.91;5004545;28;20045;-58
2022/07/24 09:25:37;;;;;;;1.05;0.60;;;;;;;29.12;46.81;101242.16;5007757;28;20152;-59
2022/07/24 09:28:03;;;;;;;2.50;0.70;;;;;;;29.27;45.70;101251.38;5014117;28;20120;-58
2022/07/24 09:30:42;;;;;;;0.65;0.63;;;;;;;29.15;45.91;101246.03;5007348;28;20037;-58
2022/07/24 09:33:18;;;;;;;0.60;0.55;;;;;;;29.43;46.98;101244.69;5009333;28;20076;-59
2022/07/24 09:35:47;;;;;;;2.58;0.63;;;;;;;29.80;45.85;101234.94;5009673;28;20133;-58
2022/07/24 09:38:16;;;;;;;1.30;0.75;;;;;;;29.65;45.41;101231.31;5007885;28;20524;-59
2022/07/24 09:40:49;;;;;;;1.13;0.73;;;;;;;29.48;44.20;101232.16;5002572;28;20064;-59
2022/07/24 09:43:30;;;;;;;1.05;0.80;;;;;;;29.30;45.49;101247.69;5006463;28;20046;-58
2022/07/24 09:46:01;;;;;;;1.05;0.60;;;;;;;29.30;46.91;101239.34;5004354;28;20441;-58
2022/07/24 09:48:31;;;;;;;0.75;0.63;;;;;;;29.36;47.27;101234.66;5003379;28;20034;-57
2022/07/24 09:51:09;;;;;;;2.28;1.05;;;;;;;29.63;44.60;101238.56;4994188;28;20642;-57
2022/07/24 09:53:38;;;;;;;0.95;0.85;;;;;;;29.85;45.39;101228.72;5005282;28;20040;-58
2022/07/24 09:56:15;;;;;;;1.00;0.52;;;;;;;30.15;44.83;101235.91;5006571;28;20032;-58
2022/07/24 09:58:48;;;;;;;0.93;0.80;;;;;;;30.26;44.34;101230.56;5005533;28;20030;-61
2022/07/24 10:01:24;;;;;;;0.90;0.80;;;;;;;30.49;43.45;101225.47;5002265;28;20073;-58
2022/07/24 10:03:53;;;;;;;2.08;0.98;;;;;;;30.30;44.67;101221.28;5007631;28;20026;-59
2022/07/24 10:06:26;;;;;;;0.75;0.65;;;;;;;30.08;43.49;101218.84;4998059;28;20524;-60
2022/07/24 10:08:58;;;;;;;0.80;0.70;;;;;;;30.50;44.66;101222.19;5001378;28;20069;-58
2022/07/24 10:11:26;;;;;;;1.08;0.93;;;;;;;30.39;43.60;101215.66;5008663;22;20069;-64
2022/07/24 10:13:59;;;;;;;1.38;0.77;;;;;;;29.64;44.26;101207.53;4992547;28;20145;-64
2022/07/24 10:16:41;;;;;;;2.70;0.80;;;;;;;30.11;44.43;101206.75;4996622;28;20042;-65
2022/07/24 10:19:15;;;;;;;1.25;0.95;;;;;;;30.38;43.83;101220.44;5002567;28;20033;-62
2022/07/24 10:21:54;;;;;;;1.38;1.00;;;;;;;30.25;43.41;101222.72;4990064;28;20033;-63
2022/07/24 10:24:59;;;;;;;1.83;0.73;;;;;;;30.67;43.36;101220.47;4998056;28;20033;-63
2022/07/24 10:27:34;;;;;;;0.95;0.90;;;;;;;31.03;42.37;101220.09;4992054;28;20136;-61
2022/07/24 10:30:08;;;;;;;1.17;0.90;;;;;;;31.25;42.27;101216.88;5002248;28;20030;-62
2022/07/24 10:32:36;;;;;;;0.93;0.88;;;;;;;30.92;42.37;101208.78;5000188;28;20392;-62
2022/07/24 10:35:21;;;;;;;0.82;0.80;;;;;;;31.02;42.68;101199.09;4999254;28;20108;-65
2022/07/24 10:37:56;;;;;;;0.82;0.70;;;;;;;31.45;43.08;101199.47;4995522;28;20499;-60
2022/07/24 10:40:30;;;;;;;1.27;0.82;;;;;;;31.84;42.19;101195.94;5003804;28;20092;-59
2022/07/24 10:43:09;;;;;;;0.90;0.80;;;;;;;31.79;41.46;101193.84;5001261;28;20061;-62
2022/07/24 10:45:56;;;;;;;1.00;0.90;;;;;;;31.79;42.44;101185.50;4990014;28;20038;-64
2022/07/24 10:48:25;;;;;;;1.23;1.08;;;;;;;32.11;40.67;101194.75;4998618;28;20125;-62
2022/07/24 10:50:58;;;;;;;1.30;1.10;;;;;;;32.07;40.99;101187.84;5001761;28;20034;-61
2022/07/24 10:53:43;;;;;;;3.38;1.13;;;;;;;31.96;40.92;101189.25;5006358;28;20604;-62
2022/07/24 10:56:19;;;;;;;1.67;1.27;;;;;;;31.78;41.48;101189.53;5005029;28;20524;-64
2022/07/24 10:58:59;;;;;;;1.42;1.17;;;;;;;31.92;42.31;101185.16;5005350;28;20060;-64
2022/07/24 11:01:28;;;;;;;3.88;1.67;;;;;;;31.88;40.98;101179.75;5009488;28;20113;-59
2022/07/24 11:03:58;;;;;;;1.65;1.35;;;;;;;31.85;40.00;101191.13;5023144;28;20115;-60
2022/07/24 11:06:39;;;;;;;2.30;1.42;;;;;;;31.68;40.32;101181.78;5006441;28;20038;-61
2022/07/24 11:09:04;;;;;;;1.73;1.45;;;;;;;31.95;40.98;101189.75;5011068;28;20038;-61
2022/07/24 11:11:32;;;;;;;2.83;1.42;;;;;;;32.29;41.67;101179.75;5008511;28;20034;-62
2022/07/24 11:14:01;;;;;;;1.10;1.00;;;;;;;32.64;40.92;101181.09;5008528;28;20041;-62
2022/07/24 11:16:32;;;;;;;2.75;1.45;;;;;;;32.93;39.15;101171.66;5009485;28;20030;-59
2022/07/24 11:19:01;;;;;;;2.20;1.40;;;;;;;33.29;39.09;101161.78;5008373;28;20555;-57
2022/07/24 11:21:46;;;;;;;4.10;1.52;;;;;;;33.08;39.71;101169.53;5005072;28;20109;-62
2022/07/24 11:24:17;;;;;;;2.42;1.50;;;;;;;33.33;40.00;101159.53;5021392;28;20022;-60
2022/07/24 11:26:56;;;;;;;;;;;;;;;33.53;39.16;101162.19;5011373;28;20069;-63
2022/07/24 11:29:26;;;;;;;2.58;1.73;;;;;;;33.87;38.09;101157.47;5010456;28;19944;-61
2022/07/24 11:32:08;;;;;;;1.92;1.38;;;;;;;33.65;38.07;101150.56;5011130;28;20091;-56
2022/07/24 11:34:51;;;;;;;3.35;1.48;;;;;;;33.11;37.57;101151.78;5006205;28;20053;-64
2022/07/24 11:37:19;;;;;;;1.50;1.38;;;;;;;33.12;38.32;101144.91;5013981;28;20026;-62
2022/07/24 11:39:49;;;;;;;2.88;1.50;;;;;;;33.33;38.41;101140.72;5009520;28;20029;-63